Time;durP1;ratioP1;P1;durP2;ratioP2;P2;SDS_P1;SDS_P2;PMS_P1;PMS_P2;Temp;Humidity;BMP_temperature;BMP_pressure;BME280_temperature;BME280_humidity;BME280_pressure;Samples;Min_cycle;Max_cycle;Signal;HPM_P1;HPM_P2
2020/12/19 00:00:05;;;;;;;5.63;3.60;;;19.00;51.10;;;;;;5023076;28;20029;-45
2020/12/19 00:02:31;;;;;;;6.00;3.70;;;19.00;51.00;;;;;;5024637;28;20120;-44
2020/12/19 00:04:56;;;;;;;6.43;3.92;;;19.00;50.90;;;;;;5023487;28;20723;-46
2020/12/19 00:07:22;;;;;;;4.65;4.10;;;19.10;50.90;;;;;;5023449;28;20086;-44
2020/12/19 00:09:47;;;;;;;5.80;3.95;;;19.00;50.90;;;;;;5024558;28;20095;-44
2020/12/19 00:12:13;;;;;;;3.60;3.10;;;19.00;50.80;;;;;;5024307;28;20037;-44
2020/12/19 00:14:38;;;;;;;4.10;3.20;;;19.00;50.90;;;;;;5025001;28;20091;-45
2020/12/19 00:17:04;;;;;;;5.50;3.33;;;19.00;50.90;;;;;;5025116;28;20837;-45
2020/12/19 00:19:29;;;;;;;4.47;3.28;;;19.00;50.90;;;;;;5024446;28;20041;-45
2020/12/19 00:21:55;;;;;;;4.95;2.85;;;19.00;51.00;;;;;;5024154;28;20032;-47
2020/12/19 00:24:20;;;;;;;8.07;4.40;;;18.90;50.90;;;;;;5024605;28;20499;-44
2020/12/19 00:26:46;;;;;;;4.65;2.65;;;18.90;51.00;;;;;;5006565;28;20037;-44
2020/12/19 00:29:11;;;;;;;6.00;4.18;;;18.90;51.00;;;;;;5024427;28;20064;-44
2020/12/19 00:31:37;;;;;;;9.00;5.10;;;18.90;51.00;;;;;;5024122;28;20060;-46
2020/12/19 00:34:03;;;;;;;8.35;5.95;;;18.90;50.90;;;;;;5022879;28;20029;-45
2020/12/19 00:36:29;;;;;;;5.53;3.50;;;18.90;51.00;;;;;;5022573;28;20045;-44
2020/12/19 00:38:55;;;;;;;6.38;3.78;;;18.90;51.00;;;;;;5024416;28;20257;-46
2020/12/19 00:41:22;;;;;;;6.43;3.70;;;18.90;51.00;;;;;;5023961;28;20042;-46
2020/12/19 00:43:48;;;;;;;8.35;4.13;;;18.80;51.10;;;;;;5024046;28;20602;-44
2020/12/19 00:46:14;;;;;;;6.07;4.60;;;18.80;51.00;;;;;;5024434;28;20112;-44
2020/12/19 00:48:40;;;;;;;7.32;4.95;;;18.80;51.00;;;;;;5023551;28;20426;-47
2020/12/19 00:51:13;;;;;;;9.30;4.53;;;18.80;51.00;;;;;;5023074;28;20045;-45
2020/12/19 00:53:40;;;;;;;7.03;4.22;;;18.80;51.00;;;;;;5023968;28;20033;-47
2020/12/19 00:56:06;;;;;;;6.60;4.32;;;18.80;51.00;;;;;;5022089;28;20106;-46
2020/12/19 00:58:31;;;;;;;7.30;4.60;;;18.80;51.00;;;;;;5023080;28;20507;-48
2020/12/19 01:00:57;;;;;;;9.90;5.40;;;18.70;50.90;;;;;;5023300;28;20072;-48
2020/12/19 01:03:22;;;;;;;7.10;4.15;;;18.80;51.00;;;;;;5005965;28;20043;-49
2020/12/19 01:05:48;;;;;;;6.85;5.10;;;18.80;51.00;;;;;;5023170;28;20037;-47
2020/12/19 01:08:13;;;;;;;8.60;5.22;;;18.70;51.00;;;;;;5023796;28;20057;-47
2020/12/19 01:10:39;;;;;;;9.93;6.30;;;18.80;51.00;;;;;;5022771;28;20414;-47
2020/12/19 01:13:04;;;;;;;9.73;5.78;;;18.70;50.90;;;;;;5022705;28;20041;-46
2020/12/19 01:15:30;;;;;;;8.48;5.25;;;18.70;50.90;;;;;;5023512;28;20091;-46
2020/12/19 01:17:55;;;;;;;9.15;5.38;;;18.80;51.00;;;;;;5023436;28;20040;-45
2020/12/19 01:20:21;;;;;;;7.30;5.38;;;18.80;50.90;;;;;;5024529;28;20038;-46
2020/12/19 01:22:46;;;;;;;6.75;4.75;;;18.80;50.90;;;;;;5023512;28;20264;-45
2020/12/19 01:25:12;;;;;;;7.93;5.10;;;18.80;51.00;;;;;;5021931;28;20105;-44
2020/12/19 01:27:37;;;;;;;9.82;5.32;;;18.80;51.00;;;;;;5023862;28;20057;-45
2020/12/19 01:30:04;;;;;;;7.75;5.07;;;18.80;51.00;;;;;;5023282;28;20079;-45
2020/12/19 01:32:29;;;;;;;7.03;4.65;;;18.90;51.00;;;;;;5022898;28;20083;-45
2020/12/19 01:34:55;;;;;;;8.55;4.60;;;18.90;51.00;;;;;;5024367;28;20581;-45
2020/12/19 01:37:20;;;;;;;8.00;4.78;;;18.90;51.00;;;;;;5023218;28;20044;-45
2020/12/19 01:39:46;;;;;;;6.38;4.63;;;18.90;51.30;;;;;;5023122;28;20037;-44
2020/12/19 01:42:11;;;;;;;6.60;4.53;;;18.90;51.00;;;;;;5023144;28;20026;-50
2020/12/19 01:44:37;;;;;;;9.43;4.63;;;19.00;51.10;;;;;;5023273;28;20553;-50
2020/12/19 01:47:03;;;;;;;8.38;5.00;;;18.90;51.00;;;;;;5023715;28;20517;-47
2020/12/19 01:49:29;;;;;;;6.32;4.45;;;19.00;51.60;;;;;;5022381;28;20072;-45
2020/12/19 01:51:59;;;;;;;6.68;4.25;;;19.00;51.00;;;;;;5022978;28;20112;-46
2020/12/19 01:54:24;;;;;;;7.80;5.00;;;19.00;50.90;;;;;;5021031;28;20033;-46
2020/12/19 01:56:51;;;;;;;6.72;4.80;;;19.00;50.90;;;;;;5021914;28;20033;-46
2020/12/19 01:59:17;;;;;;;8.60;4.70;;;19.00;50.90;;;;;;5005003;28;20063;-43
2020/12/19 02:01:53;;;;;;;6.82;4.32;;;19.00;50.80;;;;;;5021363;28;20071;-46
2020/12/19 02:04:19;;;;;;;6.60;4.93;;;19.00;50.80;;;;;;5022840;28;20037;-45
2020/12/19 02:06:47;;;;;;;7.25;4.22;;;19.00;50.70;;;;;;5021710;28;20033;-47
2020/12/19 02:09:13;;;;;;;4.63;3.70;;;19.00;50.90;;;;;;5020973;28;20041;-47
2020/12/19 02:11:39;;;;;;;5.80;4.05;;;18.90;50.80;;;;;;5022853;28;20113;-44
2020/12/19 02:14:07;;;;;;;4.88;4.18;;;19.00;50.90;;;;;;5023223;28;20037;-47
2020/12/19 02:16:34;;;;;;;7.28;4.35;;;18.90;50.80;;;;;;5023166;28;20111;-45
2020/12/19 02:18:59;;;;;;;5.45;3.80;;;18.90;50.80;;;;;;5023425;28;20034;-44
2020/12/19 02:21:24;;;;;;;7.38;4.35;;;18.90;50.80;;;;;;5021456;28;20499;-44
2020/12/19 02:23:50;;;;;;;6.50;4.55;;;18.90;50.80;;;;;;5022799;28;20064;-44
2020/12/19 02:26:15;;;;;;;6.93;3.90;;;18.90;50.80;;;;;;5022666;28;20040;-44
2020/12/19 02:28:41;;;;;;;5.90;3.90;;;18.90;50.80;;;;;;5026602;28;20030;-45
2020/12/19 02:31:06;;;;;;;5.85;3.45;;;18.80;50.80;;;;;;5028801;28;20539;-43
2020/12/19 02:33:32;;;;;;;7.32;4.47;;;18.80;50.80;;;;;;5029386;28;20120;-45
2020/12/19 02:35:57;;;;;;;4.80;3.80;;;18.80;50.80;;;;;;5029373;28;20091;-45
2020/12/19 02:38:23;;;;;;;5.72;3.92;;;18.80;50.90;;;;;;5028861;28;20129;-44
2020/12/19 02:40:48;;;;;;;8.32;4.05;;;18.80;50.90;;;;;;5029095;28;20078;-48
2020/12/19 02:43:14;;;;;;;6.40;4.22;;;18.80;50.80;;;;;;5013777;28;20535;-46
2020/12/19 02:45:40;;;;;;;5.82;4.45;;;18.80;50.90;;;;;;5024422;28;20087;-48
2020/12/19 02:48:05;;;;;;;5.13;3.72;;;18.70;50.80;;;;;;5025296;28;20050;-47
2020/12/19 02:50:31;;;;;;;6.55;4.15;;;18.70;50.80;;;;;;5025834;28;20479;-49
2020/12/19 02:52:56;;;;;;;6.10;3.95;;;18.70;50.80;;;;;;5025380;28;20039;-47
2020/12/19 02:55:21;;;;;;;6.35;4.03;;;18.70;50.90;;;;;;5025837;28;25355;-46
2020/12/19 02:57:47;;;;;;;5.88;3.67;;;18.70;50.90;;;;;;5026167;28;20022;-44
2020/12/19 03:00:13;;;;;;;4.30;3.38;;;18.70;50.90;;;;;;5025466;28;20251;-44
2020/12/19 03:02:38;;;;;;;3.80;3.33;;;18.70;50.90;;;;;;5007344;28;20049;-44
2020/12/19 03:05:04;;;;;;;4.30;3.60;;;18.60;50.80;;;;;;5025842;28;20045;-46
2020/12/19 03:07:29;;;;;;;4.55;3.65;;;18.60;50.80;;;;;;5025520;28;20068;-45
2020/12/19 03:09:55;;;;;;;5.35;4.18;;;18.60;50.90;;;;;;5026426;28;20319;-44
2020/12/19 03:12:20;;;;;;;3.85;3.00;;;18.60;50.80;;;;;;5024822;28;20247;-44
2020/12/19 03:14:46;;;;;;;5.85;3.30;;;18.60;50.70;;;;;;5026044;28;20064;-45
2020/12/19 03:17:11;;;;;;;5.88;3.42;;;18.60;50.70;;;;;;5025177;28;20346;-45
2020/12/19 03:19:37;;;;;;;5.28;3.05;;;18.70;50.70;;;;;;5023671;28;20111;-44
2020/12/19 03:22:02;;;;;;;4.18;3.40;;;18.60;50.60;;;;;;5025434;28;20125;-44
2020/12/19 03:24:28;;;;;;;4.25;3.13;;;18.70;50.70;;;;;;5025967;28;20049;-44
2020/12/19 03:26:53;;;;;;;4.82;3.63;;;18.70;50.80;;;;;;5026035;28;20030;-44
2020/12/19 03:29:19;;;;;;;3.50;2.97;;;18.70;50.70;;;;;;5025326;28;20140;-45
2020/12/19 03:31:44;;;;;;;5.47;3.90;;;18.60;50.60;;;;;;5018175;28;20360;-45
2020/12/19 03:34:10;;;;;;;4.20;2.83;;;18.70;51.30;;;;;;5025077;28;20060;-44
2020/12/19 03:36:35;;;;;;;4.57;3.08;;;18.70;50.70;;;;;;5025749;28;20090;-44
2020/12/19 03:39:01;;;;;;;4.13;3.03;;;18.70;50.60;;;;;;5025760;28;20029;-44
2020/12/19 03:41:26;;;;;;;5.30;3.30;;;18.70;50.60;;;;;;5021478;28;20034;-44
2020/12/19 03:43:52;;;;;;;4.18;3.40;;;18.70;50.60;;;;;;5022067;28;20065;-45
2020/12/19 03:46:17;;;;;;;2.78;2.25;;;18.70;50.60;;;;;;5021661;28;20669;-44
2020/12/19 03:48:43;;;;;;;5.25;3.10;;;18.70;50.60;;;;;;5021791;28;20045;-45
2020/12/19 03:51:09;;;;;;;4.75;2.65;;;18.70;50.60;;;;;;5021013;28;20037;-44
2020/12/19 03:53:34;;;;;;;3.30;2.63;;;18.70;50.70;;;;;;5021448;28;20136;-44
2020/12/19 03:56:00;;;;;;;4.03;2.42;;;18.70;50.50;;;;;;5021852;28;20029;-45
2020/12/19 03:58:25;;;;;;;3.65;3.10;;;18.70;50.50;;;;;;5021984;28;20554;-46
2020/12/19 04:00:51;;;;;;;3.70;2.55;;;18.70;50.60;;;;;;5021045;28;20045;-46
2020/12/19 04:03:16;;;;;;;3.42;2.45;;;18.70;50.60;;;;;;5021686;28;20076;-45
2020/12/19 04:05:42;;;;;;;5.43;2.85;;;18.70;50.50;;;;;;5020928;28;20036;-46
2020/12/19 04:08:07;;;;;;;3.60;2.35;;;18.70;50.60;;;;;;5022850;28;20446;-44
2020/12/19 04:10:33;;;;;;;5.35;2.75;;;18.70;50.50;;;;;;5022098;28;20025;-44
2020/12/19 04:12:58;;;;;;;3.35;2.67;;;18.70;50.70;;;;;;5022118;28;20115;-45
2020/12/19 04:15:24;;;;;;;4.07;2.70;;;18.70;50.70;;;;;;5021180;28;20068;-45
2020/12/19 04:17:50;;;;;;;3.78;2.70;;;18.70;50.70;;;;;;5022542;28;20487;-49
2020/12/19 04:20:16;;;;;;;4.38;2.58;;;18.70;50.70;;;;;;5003596;28;20033;-45
2020/12/19 04:22:41;;;;;;;4.35;2.80;;;18.60;50.70;;;;;;5022643;28;20049;-43
2020/12/19 04:25:09;;;;;;;3.72;2.53;;;18.60;51.00;;;;;;5022287;28;20109;-45
2020/12/19 04:27:34;;;;;;;4.75;2.53;;;18.60;50.70;;;;;;5022236;28;20041;-44
2020/12/19 04:30:00;;;;;;;2.50;2.30;;;18.60;50.80;;;;;;5021783;28;20041;-46
2020/12/19 04:32:25;;;;;;;3.22;2.47;;;18.60;50.80;;;;;;5021454;28;20241;-49
2020/12/19 04:34:51;;;;;;;4.15;2.90;;;18.60;50.80;;;;;;5021266;28;20032;-44
2020/12/19 04:37:16;;;;;;;4.45;2.72;;;18.60;50.80;;;;;;5021393;28;20438;-45
2020/12/19 04:39:42;;;;;;;4.05;2.45;;;18.60;50.80;;;;;;5021957;28;20103;-44
2020/12/19 04:42:07;;;;;;;4.03;2.40;;;18.60;50.80;;;;;;5021148;28;20040;-46
2020/12/19 04:44:33;;;;;;;2.80;2.10;;;18.60;50.70;;;;;;5021254;28;20542;-44
2020/12/19 04:46:58;;;;;;;3.33;2.35;;;18.50;50.80;;;;;;5020129;28;20041;-46
2020/12/19 04:49:24;;;;;;;4.45;2.35;;;18.50;50.80;;;;;;5019140;28;20065;-46
2020/12/19 04:51:49;;;;;;;3.33;2.08;;;18.60;50.70;;;;;;5036048;28;20095;-44
2020/12/19 04:54:15;;;;;;;3.45;2.38;;;18.60;50.60;;;;;;5020997;28;20121;-49
2020/12/19 04:56:40;;;;;;;2.83;2.17;;;18.50;50.60;;;;;;5021826;28;20401;-45
2020/12/19 04:59:06;;;;;;;3.38;2.13;;;18.60;50.70;;;;;;5021169;28;20083;-45
2020/12/19 05:01:32;;;;;;;2.42;2.05;;;18.60;50.70;;;;;;5019977;28;20037;-44
2020/12/19 05:03:57;;;;;;;2.55;1.90;;;18.60;50.70;;;;;;5021105;28;20038;-45
2020/12/19 05:06:24;;;;;;;3.30;2.25;;;18.60;50.70;;;;;;5021028;28;20041;-45
2020/12/19 05:08:50;;;;;;;2.13;1.55;;;18.70;50.80;;;;;;5021577;28;20040;-45
2020/12/19 05:11:15;;;;;;;2.13;1.92;;;18.70;50.80;;;;;;5020223;28;20405;-46
2020/12/19 05:13:41;;;;;;;2.80;1.90;;;18.70;50.80;;;;;;5020983;28;20398;-51
2020/12/19 05:16:11;;;;;;;2.50;2.13;;;18.70;50.80;;;;;;5020968;28;20034;-47
2020/12/19 05:18:37;;;;;;;2.15;1.83;;;18.70;50.80;;;;;;5018600;28;20060;-44
2020/12/19 05:21:06;;;;;;;2.67;2.17;;;18.80;50.80;;;;;;5020374;28;20033;-44
2020/12/19 05:23:33;;;;;;;2.28;1.92;;;18.80;50.80;;;;;;5021285;28;20095;-46
2020/12/19 05:25:58;;;;;;;2.45;1.70;;;18.80;50.90;;;;;;5020739;28;20406;-46
2020/12/19 05:28:24;;;;;;;2.90;1.88;;;18.80;50.80;;;;;;5019824;28;20029;-47
2020/12/19 05:30:50;;;;;;;2.33;1.90;;;18.90;50.90;;;;;;5019396;28;20041;-46
2020/12/19 05:33:16;;;;;;;1.65;1.30;;;18.90;50.90;;;;;;5035804;28;20045;-47
2020/12/19 05:35:41;;;;;;;2.67;1.70;;;18.90;50.80;;;;;;5020747;28;20037;-47
2020/12/19 05:38:07;;;;;;;1.92;1.67;;;18.90;50.80;;;;;;5019051;28;20545;-47
2020/12/19 05:40:33;;;;;;;2.15;1.90;;;18.90;50.80;;;;;;5020263;28;20491;-46
2020/12/19 05:42:59;;;;;;;2.33;1.55;;;18.90;50.80;;;;;;5020638;28;20060;-49
2020/12/19 05:45:25;;;;;;;1.70;1.52;;;18.90;50.80;;;;;;5019264;28;20037;-46
2020/12/19 05:47:51;;;;;;;2.42;1.40;;;18.90;50.70;;;;;;5020335;28;20569;-46
2020/12/19 05:50:17;;;;;;;2.20;1.65;;;18.90;50.50;;;;;;5020427;28;20029;-56
2020/12/19 05:52:42;;;;;;;2.10;1.50;;;18.90;50.70;;;;;;5018194;28;20053;-47
2020/12/19 05:55:09;;;;;;;2.08;1.42;;;18.90;50.60;;;;;;5019843;28;20037;-47
2020/12/19 05:57:36;;;;;;;1.90;1.50;;;18.90;50.40;;;;;;5019559;28;20033;-47
2020/12/19 06:00:04;;;;;;;2.67;1.88;;;18.90;50.40;;;;;;5019988;28;20422;-46
2020/12/19 06:02:30;;;;;;;4.55;1.70;;;18.90;50.50;;;;;;5018654;28;20037;-47
2020/12/19 06:04:59;;;;;;;2.22;1.83;;;18.90;50.50;;;;;;5017690;28;20041;-48
2020/12/19 06:07:26;;;;;;;2.47;1.48;;;18.90;50.60;;;;;;5001609;28;20545;-47
2020/12/19 06:09:51;;;;;;;1.95;1.48;;;18.90;50.50;;;;;;5018118;28;20487;-48
2020/12/19 06:12:31;;;;;;;2.08;1.30;;;18.80;50.50;;;;;;5019278;28;20036;-45
2020/12/19 06:14:57;;;;;;;2.47;1.65;;;18.80;50.50;;;;;;5033958;28;20132;-46
2020/12/19 06:17:35;;;;;;;1.73;1.15;;;18.80;50.50;;;;;;5034237;28;20254;-48
2020/12/19 06:20:01;;;;;;;2.03;1.40;;;18.80;50.60;;;;;;5018446;28;20618;-47
2020/12/19 06:22:28;;;;;;;1.73;1.20;;;18.80;50.50;;;;;;5017673;28;20135;-46
2020/12/19 06:24:54;;;;;;;2.67;1.58;;;18.80;50.60;;;;;;5019328;28;20466;-46
2020/12/19 06:27:22;;;;;;;2.47;1.80;;;18.80;50.60;;;;;;5034346;28;20044;-47
2020/12/19 06:29:48;;;;;;;2.60;1.63;;;18.80;50.60;;;;;;5019938;28;20034;-46
2020/12/19 06:32:20;;;;;;;1.80;1.60;;;18.80;50.60;;;;;;5016988;28;20538;-47
2020/12/19 06:35:10;;;;;;;1.50;1.30;;;18.70;50.50;;;;;;5019050;28;20045;-47
2020/12/19 06:37:37;;;;;;;2.38;1.48;;;18.70;50.60;;;;;;5012573;28;20128;-47
2020/12/19 06:40:18;;;;;;;1.65;1.45;;;18.70;50.50;;;;;;5018887;28;20225;-47
2020/12/19 06:42:45;;;;;;;1.55;1.30;;;18.70;50.50;;;;;;5017559;28;20515;-47
2020/12/19 06:45:23;;;;;;;1.70;1.40;;;18.70;50.50;;;;;;5017288;28;20068;-46
2020/12/19 06:47:49;;;;;;;1.80;1.27;;;18.70;50.50;;;;;;5020144;28;20033;-47
2020/12/19 06:50:15;;;;;;;1.88;1.25;;;18.70;50.50;;;;;;5016987;28;20433;-47
2020/12/19 06:52:55;;;;;;;1.55;1.30;;;18.70;50.50;;;;;;5017702;28;20029;-46
2020/12/19 06:55:21;;;;;;;2.08;1.40;;;18.70;50.50;;;;;;5002814;28;20048;-47
2020/12/19 06:57:50;;;;;;;1.30;1.10;;;18.70;50.50;;;;;;5020052;28;20037;-47
2020/12/19 07:00:24;;;;;;;1.23;1.08;;;18.70;50.40;;;;;;5019823;28;20041;-47
2020/12/19 07:02:51;;;;;;;1.88;1.30;;;18.70;50.40;;;;;;5019457;28;20034;-48
2020/12/19 07:05:21;;;;;;;1.23;1.08;;;18.70;50.40;;;;;;5019048;28;20076;-48
2020/12/19 07:07:46;;;;;;;1.67;1.35;;;18.70;50.30;;;;;;5019922;28;20033;-48
2020/12/19 07:10:12;;;;;;;3.50;1.40;;;18.80;50.50;;;;;;5019635;28;20224;-46
2020/12/19 07:12:38;;;;;;;1.80;1.25;;;18.70;50.40;;;;;;5018830;28;20050;-47
2020/12/19 07:15:06;;;;;;;1.17;1.00;;;18.80;50.50;;;;;;5019960;28;20407;-48
2020/12/19 07:17:43;;;;;;;1.48;1.13;;;18.80;50.50;;;;;;5022990;28;20518;-46
2020/12/19 07:20:08;;;;;;;1.83;1.00;;;18.80;50.50;;;;;;5021254;28;20041;-48
2020/12/19 07:22:34;;;;;;;1.15;1.00;;;18.80;50.50;;;;;;5024093;28;20037;-47
2020/12/19 07:24:59;;;;;;;1.85;1.00;;;18.80;50.50;;;;;;5025282;28;20095;-47
2020/12/19 07:27:25;;;;;;;1.20;1.10;;;18.90;50.60;;;;;;5023952;28;20037;-47
2020/12/19 07:29:57;;;;;;;1.27;1.10;;;18.90;50.60;;;;;;5028271;28;20033;-49
2020/12/19 07:32:23;;;;;;;1.25;0.95;;;18.90;50.50;;;;;;5023705;28;20171;-46
2020/12/19 07:34:52;;;;;;;1.35;1.00;;;18.90;50.50;;;;;;5024573;28;20116;-48
2020/12/19 07:37:18;;;;;;;2.20;1.00;;;18.90;50.50;;;;;;5022910;28;20100;-48
2020/12/19 07:39:43;;;;;;;1.73;1.08;;;18.90;50.50;;;;;;5006270;28;20110;-46
2020/12/19 07:42:09;;;;;;;1.15;0.90;;;19.00;50.50;;;;;;5022838;28;20388;-48
2020/12/19 07:44:35;;;;;;;1.40;1.10;;;19.00;50.50;;;;;;5023920;28;20041;-48
2020/12/19 07:47:08;;;;;;;1.05;0.88;;;18.90;50.40;;;;;;5024033;28;20091;-47
2020/12/19 07:49:45;;;;;;;0.82;0.82;;;18.90;51.00;;;;;;5006043;28;20033;-46
2020/12/19 07:52:12;;;;;;;1.50;0.95;;;18.90;50.40;;;;;;5022382;28;20445;-47
2020/12/19 07:54:38;;;;;;;1.45;0.90;;;19.00;50.50;;;;;;5023547;28;20033;-47
2020/12/19 07:57:04;;;;;;;1.42;1.10;;;18.90;50.10;;;;;;5023004;28;20091;-46
2020/12/19 07:59:29;;;;;;;1.05;0.95;;;18.90;50.30;;;;;;5023350;28;20037;-47
2020/12/19 08:01:55;;;;;;;0.80;0.80;;;18.90;50.10;;;;;;5024117;28;20571;-46
2020/12/19 08:04:21;;;;;;;1.30;0.95;;;18.90;50.10;;;;;;5021479;28;20046;-48
2020/12/19 08:06:47;;;;;;;2.20;1.00;;;18.90;50.20;;;;;;5020615;28;20399;-47
2020/12/19 08:09:22;;;;;;;3.25;1.17;;;18.90;50.20;;;;;;5021438;28;20087;-45
2020/12/19 08:11:50;;;;;;;2.58;1.02;;;18.90;50.20;;;;;;5022338;28;25119;-46
2020/12/19 08:14:19;;;;;;;1.55;1.27;;;18.90;50.30;;;;;;5023094;28;20033;-46
2020/12/19 08:16:45;;;;;;;1.20;0.80;;;18.90;50.30;;;;;;5022699;28;20064;-49
2020/12/19 08:19:12;;;;;;;2.22;1.10;;;18.90;50.30;;;;;;5023410;28;20221;-48
2020/12/19 08:21:38;;;;;;;3.95;2.38;;;18.90;50.30;;;;;;5020215;28;20830;-47
2020/12/19 08:24:04;;;;;;;5.38;3.80;;;18.90;50.30;;;;;;5020919;28;20317;-46
2020/12/19 08:26:29;;;;;;;2.38;1.67;;;18.90;50.40;;;;;;5036334;28;20037;-46
2020/12/19 08:29:05;;;;;;;5.18;2.17;;;18.90;50.40;;;;;;5024514;28;20040;-48
2020/12/19 08:31:36;;;;;;;5.50;3.63;;;18.90;50.40;;;;;;5106107;22;20052;-59
2020/12/19 08:34:09;;;;;;;2.15;1.55;;;18.90;50.40;;;;;;5048377;28;20028;-59
2020/12/19 08:36:35;;;;;;;6.13;3.42;;;18.90;50.30;;;;;;5067374;28;20023;-59
2020/12/19 08:39:16;;;;;;;3.47;2.85;;;18.90;50.30;;;;;;5067779;28;20024;-58
2020/12/19 08:41:42;;;;;;;5.10;2.92;;;18.90;50.30;;;;;;5060157;28;20040;-57
2020/12/19 08:44:28;;;;;;;4.57;2.45;;;18.90;50.30;;;;;;5067465;28;20064;-57
2020/12/19 08:47:06;;;;;;;4.45;3.80;;;18.80;50.30;;;;;;5049035;28;20040;-58
2020/12/19 08:49:32;;;;;;;3.30;1.55;;;18.90;50.30;;;;;;5068567;28;20090;-57
2020/12/19 08:51:57;;;;;;;4.22;2.78;;;18.90;50.30;;;;;;5049242;28;20483;-54
2020/12/19 08:54:23;;;;;;;6.25;3.28;;;18.80;50.20;;;;;;5067457;28;20173;-58
2020/12/19 08:56:50;;;;;;;4.65;2.45;;;18.80;50.20;;;;;;5067335;28;20750;-58
2020/12/19 08:59:28;;;;;;;2.17;1.73;;;18.90;50.20;;;;;;5067299;28;20031;-55
2020/12/19 09:01:54;;;;;;;3.80;2.78;;;18.90;50.20;;;;;;5066286;28;20036;-56
2020/12/19 09:04:20;;;;;;;4.93;2.30;;;18.90;50.20;;;;;;5066864;28;20036;-56
2020/12/19 09:06:49;;;;;;;3.33;2.22;;;18.90;50.20;;;;;;5066865;28;20025;-56
2020/12/19 09:09:19;;;;;;;3.40;2.53;;;18.80;50.10;;;;;;5066902;28;20020;-60
2020/12/19 09:11:44;;;;;;;3.85;2.75;;;18.90;50.20;;;;;;5049205;28;20112;-57
2020/12/19 09:14:11;;;;;;;3.33;2.28;;;18.90;50.20;;;;;;5067325;28;20562;-55
2020/12/19 09:16:47;;;;;;;5.65;3.15;;;18.90;50.20;;;;;;5066827;28;20089;-59
2020/12/19 09:19:17;;;;;;;3.15;2.35;;;18.90;50.20;;;;;;5067522;28;20449;-57
2020/12/19 09:21:58;;;;;;;4.88;3.20;;;18.90;50.20;;;;;;5048466;28;20048;-57
2020/12/19 09:24:23;;;;;;;3.33;2.38;;;18.90;50.40;;;;;;5066448;28;20033;-55
2020/12/19 09:26:49;;;;;;;3.80;2.65;;;18.90;50.30;;;;;;5066406;28;20025;-57
2020/12/19 09:29:15;;;;;;;1.73;1.60;;;18.90;50.30;;;;;;5049324;28;20086;-58
2020/12/19 09:31:40;;;;;;;2.97;2.33;;;18.90;50.30;;;;;;5065844;28;20814;-58
2020/12/19 09:34:06;;;;;;;2.22;1.70;;;18.90;50.30;;;;;;5066217;28;20032;-59
2020/12/19 09:36:31;;;;;;;5.05;2.75;;;18.90;50.30;;;;;;5066082;28;20041;-63
2020/12/19 09:38:57;;;;;;;8.95;4.95;;;18.90;50.30;;;;;;5066854;28;20514;-63
2020/12/19 09:41:22;;;;;;;16.92;8.43;;;18.90;50.40;;;;;;5064433;28;20068;-62
2020/12/19 09:43:48;;;;;;;5.30;3.25;;;18.90;50.50;;;;;;5065783;28;20051;-63
2020/12/19 09:46:14;;;;;;;5.55;2.92;;;18.90;50.40;;;;;;5065876;28;20035;-63
2020/12/19 09:48:40;;;;;;;6.22;3.63;;;19.00;50.40;;;;;;5048155;28;20020;-63
2020/12/19 09:51:05;;;;;;;6.55;4.30;;;19.00;51.00;;;;;;5065667;28;20017;-64
2020/12/19 09:53:31;;;;;;;13.93;5.35;;;18.90;50.30;;;;;;5066255;28;20032;-62
2020/12/19 09:55:56;;;;;;;9.63;5.00;;;18.90;50.40;;;;;;5065938;28;20525;-63
2020/12/19 09:58:22;;;;;;;7.88;4.45;;;19.00;50.50;;;;;;5065829;28;20036;-63
2020/12/19 10:00:47;;;;;;;7.85;4.82;;;18.90;50.40;;;;;;5065882;28;20034;-62
2020/12/19 10:03:13;;;;;;;6.40;3.38;;;19.00;50.40;;;;;;5066448;28;20494;-65
2020/12/19 10:05:38;;;;;;;7.30;4.15;;;19.00;50.50;;;;;;5066387;28;20035;-66
2020/12/19 10:08:04;;;;;;;6.03;3.47;;;18.90;50.40;;;;;;5066771;28;20040;-62
2020/12/19 10:10:29;;;;;;;10.23;4.30;;;18.90;50.40;;;;;;5065728;28;20029;-64
2020/12/19 10:12:55;;;;;;;6.07;3.72;;;18.90;50.40;;;;;;5066106;28;20020;-62
2020/12/19 10:15:20;;;;;;;7.68;3.83;;;18.90;50.40;;;;;;5066018;28;20028;-63
2020/12/19 10:17:46;;;;;;;8.40;4.47;;;19.00;50.40;;;;;;5066791;28;20063;-62
2020/12/19 10:20:11;;;;;;;10.85;5.10;;;18.90;50.40;;;;;;5064219;28;20028;-63
2020/12/19 10:22:37;;;;;;;7.10;3.70;;;18.90;50.40;;;;;;5065300;28;20039;-63
2020/12/19 10:25:03;;;;;;;8.55;4.55;;;18.90;50.40;;;;;;5065606;28;20028;-63
2020/12/19 10:27:28;;;;;;;9.43;5.15;;;19.00;50.50;;;;;;5047789;28;20129;-62
2020/12/19 10:29:54;;;;;;;8.75;5.03;;;18.90;50.30;;;;;;5065947;28;20103;-63
2020/12/19 10:32:19;;;;;;;11.00;5.05;;;18.90;50.30;;;;;;5073814;28;20523;-63
2020/12/19 10:34:45;;;;;;;11.75;5.03;;;19.00;50.40;;;;;;5071008;28;20020;-64
2020/12/19 10:37:10;;;;;;;9.43;5.05;;;19.00;50.40;;;;;;5065652;28;20070;-62
2020/12/19 10:39:36;;;;;;;15.45;5.88;;;19.00;50.30;;;;;;5047723;28;20047;-63
2020/12/19 10:42:01;;;;;;;11.43;5.10;;;19.00;50.40;;;;;;5066050;28;20027;-63
2020/12/19 10:44:27;;;;;;;10.57;4.68;;;19.00;50.40;;;;;;5066225;28;20025;-63
2020/12/19 10:46:52;;;;;;;9.02;4.28;;;19.00;50.30;;;;;;5065721;28;20028;-62
2020/12/19 10:49:18;;;;;;;7.18;4.68;;;19.10;50.30;;;;;;5065793;28;20034;-63
2020/12/19 10:51:43;;;;;;;7.00;4.05;;;19.10;50.30;;;;;;5069523;28;20035;-63
2020/12/19 10:54:09;;;;;;;11.10;5.00;;;19.10;50.20;;;;;;5069603;28;20070;-61
2020/12/19 10:56:34;;;;;;;10.88;4.50;;;19.10;50.30;;;;;;5070204;28;20028;-64
2020/12/19 10:59:00;;;;;;;8.27;4.00;;;19.20;50.20;;;;;;5069853;28;20060;-63
2020/12/19 11:01:26;;;;;;;9.60;4.05;;;19.20;50.10;;;;;;5068523;28;20098;-62
2020/12/19 11:03:51;;;;;;;8.82;4.50;;;19.20;50.20;;;;;;5069439;28;20137;-64
2020/12/19 11:06:26;;;;;;;9.30;4.53;;;19.20;50.20;;;;;;5069383;28;20021;-62
2020/12/19 11:08:52;;;;;;;7.85;4.18;;;19.20;50.10;;;;;;5062892;28;20032;-64
2020/12/19 11:11:18;;;;;;;11.75;4.93;;;19.20;50.10;;;;;;5069471;28;20120;-64
2020/12/19 11:13:44;;;;;;;9.65;4.10;;;19.20;50.10;;;;;;5069719;28;20028;-63
2020/12/19 11:16:10;;;;;;;6.60;3.78;;;19.20;50.00;;;;;;5043340;28;20487;-60
2020/12/19 11:18:36;;;;;;;10.32;3.92;;;19.20;50.10;;;;;;5069586;28;20044;-62
2020/12/19 11:21:04;;;;;;;7.75;4.07;;;19.20;50.10;;;;;;5068992;28;20033;-63
2020/12/19 11:23:30;;;;;;;8.00;3.75;;;19.10;50.00;;;;;;5051051;28;20039;-62
2020/12/19 11:25:55;;;;;;;9.00;4.30;;;19.10;50.00;;;;;;5069927;28;20036;-64
2020/12/19 11:28:21;;;;;;;7.95;4.03;;;19.10;50.00;;;;;;5069793;28;20024;-63
2020/12/19 11:30:46;;;;;;;6.05;3.88;;;19.10;50.00;;;;;;5064378;28;20521;-65
2020/12/19 11:33:12;;;;;;;8.55;4.45;;;19.10;50.00;;;;;;5060488;28;20033;-63
2020/12/19 11:35:38;;;;;;;7.60;4.35;;;19.00;50.00;;;;;;5058900;28;20036;-63
2020/12/19 11:38:03;;;;;;;7.75;4.13;;;19.10;50.00;;;;;;5066250;28;20032;-62
2020/12/19 11:40:29;;;;;;;7.70;4.20;;;19.00;50.00;;;;;;5065668;28;20083;-61
2020/12/19 11:42:54;;;;;;;7.20;4.75;;;19.10;50.00;;;;;;5062169;28;20496;-61
2020/12/19 11:45:20;;;;;;;7.47;4.28;;;19.00;49.90;;;;;;5064518;28;20041;-64
2020/12/19 11:47:46;;;;;;;6.75;4.18;;;19.00;50.00;;;;;;5069344;28;20032;-65
2020/12/19 11:50:11;;;;;;;6.55;4.07;;;19.00;49.90;;;;;;5056854;28;20488;-65
2020/12/19 11:52:37;;;;;;;6.22;3.50;;;19.00;49.90;;;;;;5064657;28;20071;-66
2020/12/19 11:55:02;;;;;;;7.47;3.97;;;19.00;49.80;;;;;;5053516;28;20081;-64
2020/12/19 11:57:28;;;;;;;6.88;3.55;;;19.00;49.80;;;;;;5071708;28;20461;-64
2020/12/19 11:59:53;;;;;;;6.05;3.63;;;19.10;49.70;;;;;;5071693;28;20029;-65
2020/12/19 12:02:19;;;;;;;6.05;3.60;;;19.20;49.70;;;;;;5069681;28;20032;-64
2020/12/19 12:04:44;;;;;;;8.50;4.03;;;19.20;49.60;;;;;;5069163;28;20441;-64
2020/12/19 12:07:10;;;;;;;6.25;3.50;;;19.30;49.60;;;;;;5054924;28;20029;-64
2020/12/19 12:09:35;;;;;;;7.15;3.42;;;19.30;49.50;;;;;;5055291;28;20033;-64
2020/12/19 12:12:02;;;;;;;7.72;3.75;;;19.40;49.30;;;;;;5065455;28;20391;-62
2020/12/19 12:14:27;;;;;;;7.85;3.90;;;19.50;49.20;;;;;;5071034;28;20119;-63
2020/12/19 12:16:53;;;;;;;7.85;3.58;;;19.60;48.90;;;;;;5071625;28;20032;-62
2020/12/19 12:19:18;;;;;;;8.43;3.45;;;19.70;48.60;;;;;;5071167;28;20029;-62
2020/12/19 12:21:44;;;;;;;9.13;3.83;;;19.80;48.50;;;;;;5070598;28;20032;-65
2020/12/19 12:24:09;;;;;;;7.03;3.90;;;19.80;48.30;;;;;;5071104;28;20032;-63
2020/12/19 12:26:35;;;;;;;5.82;3.30;;;19.80;48.30;;;;;;5053014;28;20050;-61
2020/12/19 12:29:01;;;;;;;4.95;3.20;;;19.80;48.40;;;;;;5071220;28;20020;-62
2020/12/19 12:31:28;;;;;;;9.32;4.13;;;19.80;48.40;;;;;;5070888;28;20051;-61
2020/12/19 12:33:54;;;;;;;5.38;3.35;;;19.80;48.30;;;;;;5070834;28;20499;-61
2020/12/19 12:36:20;;;;;;;4.90;3.50;;;19.70;48.30;;;;;;5071308;28;20033;-61
2020/12/19 12:38:45;;;;;;;6.28;3.17;;;19.70;48.30;;;;;;5052129;28;20109;-61
2020/12/19 12:41:11;;;;;;;7.53;3.47;;;19.70;48.40;;;;;;5061151;28;20115;-60